createdAt,value
2019-03-18T00:00:35.596Z,14.60
2019-03-18T00:01:35.667Z,14.00
2019-03-18T00:02:35.713Z,14.50
2019-03-18T00:03:35.746Z,14.50
2019-03-18T00:04:35.796Z,14.40
2019-03-18T00:05:35.845Z,13.50
2019-03-18T00:06:35.882Z,13.60
2019-03-18T00:07:35.942Z,13.80
2019-03-18T00:08:36.017Z,14.80
2019-03-18T00:09:36.035Z,14.10
2019-03-18T00:10:36.074Z,14.80
2019-03-18T00:11:36.117Z,16.50
2019-03-18T00:12:36.150Z,16.30
2019-03-18T00:13:36.252Z,17.40
2019-03-18T00:14:36.259Z,17.70
2019-03-18T00:15:36.318Z,18.20
2019-03-18T00:16:36.337Z,18.80
2019-03-18T00:17:36.398Z,18.70
2019-03-18T00:18:36.444Z,17.80
2019-03-18T00:19:36.494Z,20.70
2019-03-18T00:20:36.538Z,18.40
2019-03-18T00:21:36.624Z,16.80
2019-03-18T00:22:36.629Z,18.40
2019-03-18T00:23:36.675Z,18.00
2019-03-18T00:24:36.731Z,16.80
2019-03-18T00:25:36.753Z,16.70
2019-03-18T00:26:36.797Z,16.90
2019-03-18T00:27:36.862Z,17.00
2019-03-18T00:28:36.918Z,17.50
2019-03-18T00:29:36.954Z,18.50
2019-03-18T00:30:37.053Z,17.50
2019-03-18T00:31:37.041Z,22.10
2019-03-18T00:32:37.099Z,22.90
2019-03-18T00:33:37.163Z,19.80
2019-03-18T00:34:37.211Z,20.50
2019-03-18T00:35:37.263Z,20.60
2019-03-18T00:36:37.291Z,16.90
2019-03-18T00:37:37.346Z,18.10
2019-03-18T00:38:37.379Z,19.20
2019-03-18T00:39:37.450Z,18.20
2019-03-18T00:40:37.482Z,18.00
2019-03-18T00:41:37.536Z,18.20
2019-03-18T00:42:37.590Z,20.50
2019-03-18T00:43:37.634Z,18.40
2019-03-18T00:44:37.676Z,20.20
2019-03-18T00:45:40.216Z,21.30
2019-03-18T00:46:37.795Z,20.40
2019-03-18T00:47:37.816Z,21.50
2019-03-18T00:48:37.848Z,22.40
2019-03-18T00:49:37.910Z,19.70
2019-03-18T00:50:37.961Z,21.50
2019-03-18T00:51:37.992Z,20.60
2019-03-18T00:52:38.036Z,20.30
2019-03-18T00:53:38.106Z,19.00
2019-03-18T00:54:38.134Z,19.90
2019-03-18T00:55:38.175Z,20.80
2019-03-18T00:56:38.228Z,21.40
2019-03-18T00:57:38.279Z,21.40
2019-03-18T00:58:38.323Z,21.10
2019-03-18T00:59:38.393Z,23.90
2019-03-18T01:00:38.444Z,23.00
2019-03-18T01:01:38.447Z,22.60
2019-03-18T01:02:38.533Z,22.70
2019-03-18T01:03:38.557Z,21.80
2019-03-18T01:04:38.615Z,20.90
2019-03-18T01:05:38.654Z,21.60
2019-03-18T01:06:38.712Z,22.10
2019-03-18T01:07:38.764Z,22.80
2019-03-18T01:08:38.805Z,22.60
2019-03-18T01:09:38.857Z,25.70
2019-03-18T01:10:38.894Z,23.40
2019-03-18T01:11:38.938Z,24.30
2019-03-18T01:12:38.998Z,23.50
2019-03-18T01:13:39.019Z,23.50
2019-03-18T01:14:39.128Z,23.40
2019-03-18T01:15:39.136Z,25.00
2019-03-18T01:16:39.185Z,25.10
2019-03-18T01:17:39.225Z,23.40
2019-03-18T01:18:39.275Z,22.80
2019-03-18T01:19:39.330Z,24.00
2019-03-18T01:20:39.353Z,24.60
2019-03-18T01:21:39.413Z,24.60
2019-03-18T01:22:39.452Z,24.00
2019-03-18T01:23:39.500Z,24.70
2019-03-18T01:24:39.566Z,25.10
2019-03-18T01:25:39.613Z,26.00
2019-03-18T01:26:39.686Z,24.80
2019-03-18T01:27:39.689Z,24.90
2019-03-18T01:28:39.892Z,25.30
2019-03-18T01:29:39.785Z,26.40
2019-03-18T01:30:39.820Z,26.10
2019-03-18T01:31:39.898Z,25.10
2019-03-18T01:32:39.957Z,26.80
2019-03-18T01:33:39.984Z,26.40
2019-03-18T01:34:40.024Z,26.00
2019-03-18T01:35:40.219Z,26.20
2019-03-18T01:36:40.133Z,27.30
2019-03-18T01:37:40.164Z,27.00
2019-03-18T01:38:40.249Z,26.60
2019-03-18T01:39:40.265Z,27.10
2019-03-18T01:40:40.344Z,26.90
2019-03-18T01:41:40.344Z,29.30
2019-03-18T01:42:40.418Z,28.80
2019-03-18T01:43:40.448Z,27.90
2019-03-18T01:44:40.540Z,29.60
2019-03-18T01:45:41.254Z,29.10
2019-03-18T01:46:40.581Z,28.70
2019-03-18T01:47:40.641Z,28.80
2019-03-18T01:48:40.668Z,30.20
2019-03-18T01:49:40.767Z,28.50
2019-03-18T01:50:40.763Z,28.40
2019-03-18T01:51:40.829Z,28.60
2019-03-18T01:52:40.854Z,29.50
2019-03-18T01:53:40.928Z,29.20
2019-03-18T01:54:41.004Z,29.90
2019-03-18T01:55:40.991Z,28.70
2019-03-18T01:56:41.069Z,31.10
2019-03-18T01:57:41.085Z,28.80
2019-03-18T01:58:41.151Z,31.20
2019-03-18T01:59:41.235Z,30.20
2019-03-18T02:00:41.286Z,31.50
2019-03-18T02:01:41.275Z,30.30
2019-03-18T02:02:41.326Z,30.80
2019-03-18T02:03:41.389Z,31.90
2019-03-18T02:04:41.420Z,34.50
2019-03-18T02:05:41.451Z,33.10
2019-03-18T02:06:41.508Z,31.00
2019-03-18T02:07:41.568Z,31.00
2019-03-18T02:08:41.697Z,33.30
2019-03-18T02:09:41.685Z,31.50
2019-03-18T02:10:41.728Z,29.10
2019-03-18T02:11:41.742Z,29.90
2019-03-18T02:12:41.817Z,33.50
2019-03-18T02:13:41.961Z,33.30
2019-03-18T02:14:41.889Z,31.70
2019-03-18T02:15:52.751Z,29.80
2019-03-18T02:16:42.010Z,30.50
2019-03-18T02:17:42.051Z,31.40
2019-03-18T02:18:42.114Z,30.00
2019-03-18T02:19:42.144Z,30.50
2019-03-18T02:20:42.226Z,30.50
2019-03-18T02:21:42.240Z,34.90
2019-03-18T02:22:42.295Z,32.20
2019-03-18T02:23:42.379Z,33.50
2019-03-18T02:24:42.375Z,32.90
2019-03-18T02:25:42.431Z,32.80
2019-03-18T02:26:42.472Z,44.60
2019-03-18T02:27:42.556Z,47.90
2019-03-18T02:28:42.582Z,52.90
2019-03-18T02:29:42.624Z,47.60
2019-03-18T02:30:42.691Z,45.60
2019-03-18T02:31:42.726Z,45.10
2019-03-18T02:32:42.757Z,41.90
2019-03-18T02:33:42.793Z,42.30
2019-03-18T02:34:42.849Z,37.90
2019-03-18T02:35:42.904Z,39.90
2019-03-18T02:36:42.945Z,35.70
2019-03-18T02:37:43.000Z,39.70
2019-03-18T02:38:43.089Z,44.10
2019-03-18T02:39:43.082Z,44.70
2019-03-18T02:40:43.130Z,40.50
2019-03-18T02:41:43.172Z,48.30
2019-03-18T02:42:43.232Z,44.20
2019-03-18T02:43:43.269Z,35.50
2019-03-18T02:44:43.334Z,34.50
2019-03-18T02:45:43.349Z,41.10
2019-03-18T02:46:43.414Z,41.90
2019-03-18T02:47:43.516Z,35.80
2019-03-18T02:48:43.529Z,37.00
2019-03-18T02:49:43.570Z,42.80
2019-03-18T02:50:43.622Z,37.70
2019-03-18T02:51:43.639Z,38.70
2019-03-18T02:52:43.730Z,36.40
2019-03-18T02:53:43.749Z,40.90
2019-03-18T02:54:43.803Z,45.20
2019-03-18T02:55:43.836Z,44.30
2019-03-18T02:56:43.898Z,45.50
2019-03-18T02:57:43.976Z,46.00
2019-03-18T02:58:44.001Z,44.40
2019-03-18T02:59:44.083Z,45.70
2019-03-18T03:00:44.083Z,42.10
2019-03-18T03:01:44.120Z,35.20
2019-03-18T03:02:44.175Z,35.30
2019-03-18T03:03:44.229Z,33.60
2019-03-18T03:04:44.289Z,39.60
2019-03-18T03:05:44.320Z,47.00
2019-03-18T03:06:44.392Z,52.70
2019-03-18T03:07:44.420Z,52.60
2019-03-18T03:08:44.479Z,52.20
2019-03-18T03:09:44.531Z,32.40
2019-03-18T03:10:44.577Z,39.90
2019-03-18T03:11:44.689Z,33.90
2019-03-18T03:12:44.671Z,34.10
2019-03-18T03:13:44.730Z,33.70
2019-03-18T03:14:44.760Z,33.10
2019-03-18T03:15:44.798Z,40.60
2019-03-18T03:16:44.845Z,40.90
2019-03-18T03:17:44.902Z,40.80
2019-03-18T03:18:44.940Z,41.00
2019-03-18T03:19:44.959Z,35.20
2019-03-18T03:20:45.032Z,35.80
2019-03-18T03:21:45.073Z,34.20
2019-03-18T03:22:45.126Z,34.60
2019-03-18T03:23:45.185Z,30.40
2019-03-18T03:24:45.213Z,33.10
2019-03-18T03:25:45.270Z,30.20
2019-03-18T03:26:45.318Z,33.40
2019-03-18T03:27:45.368Z,31.50
2019-03-18T03:28:45.405Z,28.90
2019-03-18T03:29:45.462Z,32.70
2019-03-18T03:30:45.552Z,35.70
2019-03-18T03:31:45.528Z,37.00
2019-03-18T03:32:45.635Z,33.90
2019-03-18T03:33:45.647Z,33.70
2019-03-18T03:34:45.679Z,35.90
2019-03-18T03:35:45.738Z,33.70
2019-03-18T03:36:45.785Z,30.30
2019-03-18T03:37:45.825Z,29.20
2019-03-18T03:38:45.885Z,28.30
2019-03-18T03:39:45.926Z,32.10
2019-03-18T03:40:45.971Z,31.80
2019-03-18T03:41:46.065Z,33.60
2019-03-18T03:42:46.054Z,34.20
2019-03-18T03:43:46.085Z,29.50
2019-03-18T03:44:46.164Z,28.60
2019-03-18T03:45:46.205Z,27.70
2019-03-18T03:46:46.247Z,30.40
2019-03-18T03:47:46.295Z,31.60
2019-03-18T03:48:46.345Z,29.50
2019-03-18T03:49:46.409Z,29.60
2019-03-18T03:50:46.445Z,34.80
2019-03-18T03:51:46.487Z,27.30
2019-03-18T03:52:46.540Z,29.10
2019-03-18T03:53:46.592Z,29.00
2019-03-18T03:54:46.697Z,34.30
2019-03-18T03:55:46.677Z,29.00
2019-03-18T03:56:46.743Z,33.00
2019-03-18T03:57:46.806Z,32.00
2019-03-18T03:58:46.826Z,31.20
2019-03-18T03:59:46.885Z,29.50
2019-03-18T04:00:46.919Z,32.60
2019-03-18T04:01:46.990Z,31.30
2019-03-18T04:02:47.016Z,33.50
2019-03-18T04:03:47.099Z,37.00
2019-03-18T04:04:47.113Z,30.30
2019-03-18T04:05:47.157Z,32.10
2019-03-18T04:06:47.200Z,32.20
2019-03-18T04:07:47.245Z,36.10
2019-03-18T04:08:47.302Z,28.70
2019-03-18T04:09:47.347Z,28.60
2019-03-18T04:10:47.417Z,31.70
2019-03-18T04:11:47.453Z,32.80
2019-03-18T04:12:47.474Z,31.10
2019-03-18T04:13:47.534Z,31.40
2019-03-18T04:14:47.617Z,29.30
2019-03-18T04:15:47.623Z,25.70
2019-03-18T04:17:00.787Z,25.70
2019-03-18T04:17:47.707Z,20.00
2019-03-18T04:18:47.763Z,23.00
2019-03-18T04:19:47.811Z,24.90
2019-03-18T04:20:47.852Z,25.20
2019-03-18T04:21:50.672Z,22.60
2019-03-18T04:22:47.983Z,22.90
2019-03-18T04:23:48.008Z,22.90
2019-03-18T04:24:48.067Z,23.00
2019-03-18T04:25:48.112Z,26.50
2019-03-18T04:26:48.152Z,26.20
2019-03-18T04:27:48.179Z,25.10
2019-03-18T04:28:48.251Z,25.50
2019-03-18T04:29:48.288Z,23.00
2019-03-18T04:30:48.382Z,24.90
2019-03-18T04:31:48.391Z,25.50
2019-03-18T04:32:48.473Z,25.00
2019-03-18T04:33:48.517Z,24.50
2019-03-18T04:34:48.503Z,25.60
2019-03-18T04:35:48.560Z,25.70
2019-03-18T04:36:48.618Z,24.50
2019-03-18T04:37:48.666Z,23.20
2019-03-18T04:38:48.704Z,23.00
2019-03-18T04:39:48.737Z,22.10
2019-03-18T04:40:48.825Z,23.70
2019-03-18T04:41:48.882Z,23.40
2019-03-18T04:42:48.885Z,22.00
2019-03-18T04:43:48.955Z,22.60
2019-03-18T04:44:48.995Z,24.40
2019-03-18T04:45:49.046Z,23.90
2019-03-18T04:46:49.087Z,23.10
2019-03-18T04:47:49.109Z,23.00
2019-03-18T04:48:49.169Z,24.30
2019-03-18T04:49:49.209Z,23.50
2019-03-18T04:50:49.376Z,23.60
2019-03-18T04:51:49.308Z,23.20
2019-03-18T04:52:49.355Z,23.80
2019-03-18T04:53:49.414Z,24.20
2019-03-18T04:54:49.458Z,24.60
2019-03-18T04:55:49.502Z,25.30
2019-03-18T04:56:49.543Z,23.60
2019-03-18T04:57:49.591Z,24.30
2019-03-18T04:58:49.640Z,24.60
2019-03-18T04:59:49.689Z,24.20
2019-03-18T05:00:49.729Z,24.60
2019-03-18T05:01:49.788Z,25.70
2019-03-18T05:02:49.815Z,24.90
2019-03-18T05:03:49.878Z,25.90
2019-03-18T05:04:49.915Z,25.60
2019-03-18T05:05:49.979Z,25.50
2019-03-18T05:06:50.004Z,25.70
2019-03-18T05:07:50.047Z,25.20
2019-03-18T05:08:50.093Z,25.50
2019-03-18T05:09:50.162Z,25.70
2019-03-18T05:10:50.203Z,25.40
2019-03-18T05:11:50.273Z,25.10
2019-03-18T05:12:50.301Z,26.00
2019-03-18T05:13:50.375Z,26.90
2019-03-18T05:14:50.379Z,26.30
2019-03-18T05:15:50.441Z,25.30
2019-03-18T05:16:50.451Z,25.20
2019-03-18T05:17:50.539Z,26.30
2019-03-18T05:18:50.618Z,25.90
2019-03-18T05:19:50.600Z,25.90
2019-03-18T05:20:50.671Z,25.40
2019-03-18T05:21:50.720Z,26.10
2019-03-18T05:22:50.776Z,25.40
2019-03-18T05:23:50.815Z,27.60
2019-03-18T05:24:50.848Z,27.10
2019-03-18T05:25:50.893Z,24.80
2019-03-18T05:26:50.925Z,25.00
2019-03-18T05:27:50.995Z,25.40
2019-03-18T05:28:51.081Z,25.70
2019-03-18T05:29:51.097Z,25.60
2019-03-18T05:30:51.139Z,25.80
2019-03-18T05:31:51.186Z,25.00
2019-03-18T05:32:51.230Z,25.30
2019-03-18T05:33:51.272Z,25.50
2019-03-18T05:34:51.326Z,25.70
2019-03-18T05:35:51.376Z,26.00
2019-03-18T05:36:51.404Z,26.10
2019-03-18T05:37:51.445Z,27.20
2019-03-18T05:38:51.506Z,28.20
2019-03-18T05:39:51.521Z,28.30
2019-03-18T05:40:51.586Z,28.70
2019-03-18T05:41:51.626Z,30.20
2019-03-18T05:42:51.691Z,26.10
2019-03-18T05:43:51.721Z,27.10
2019-03-18T05:44:51.759Z,26.80
2019-03-18T05:45:51.833Z,28.60
2019-03-18T05:46:51.872Z,28.20
2019-03-18T05:47:51.928Z,28.40
2019-03-18T05:48:51.969Z,28.70
2019-03-18T05:49:53.922Z,27.60
2019-03-18T05:50:52.056Z,27.80
2019-03-18T05:51:52.091Z,27.70
2019-03-18T05:52:52.153Z,27.30
2019-03-18T05:53:52.189Z,26.40
2019-03-18T05:54:52.259Z,27.20
2019-03-18T05:55:52.279Z,26.40
2019-03-18T05:56:52.516Z,27.10
2019-03-18T05:57:52.382Z,26.60
2019-03-18T05:58:52.423Z,26.50
2019-03-18T05:59:52.464Z,26.10
2019-03-18T06:00:52.538Z,26.10
2019-03-18T06:01:52.563Z,26.10
2019-03-18T06:02:52.615Z,26.50
2019-03-18T06:03:52.649Z,27.80
2019-03-18T06:04:52.693Z,26.20
2019-03-18T06:05:52.763Z,27.10
2019-03-18T06:06:52.805Z,27.40
2019-03-18T06:07:52.858Z,26.10
2019-03-18T06:08:52.946Z,24.00
2019-03-18T06:09:52.958Z,24.70
2019-03-18T06:10:52.975Z,22.10
2019-03-18T06:11:53.040Z,24.10
2019-03-18T06:12:53.086Z,25.80
2019-03-18T06:13:56.304Z,24.30
2019-03-18T06:14:53.183Z,22.30
2019-03-18T06:15:53.238Z,22.90
2019-03-18T06:16:53.267Z,23.40
2019-03-18T06:17:53.363Z,25.10
2019-03-18T06:18:53.364Z,24.00
2019-03-18T06:19:53.566Z,23.20
2019-03-18T06:20:53.439Z,23.70
2019-03-18T06:21:53.498Z,24.40
2019-03-18T06:22:53.527Z,23.70
2019-03-18T06:23:53.633Z,24.10
2019-03-18T06:24:53.628Z,24.00
2019-03-18T06:25:53.849Z,25.30
2019-03-18T06:26:53.732Z,24.90
2019-03-18T06:27:53.766Z,24.60
2019-03-18T06:28:53.823Z,24.20
2019-03-18T06:29:53.899Z,24.10
2019-03-18T06:30:53.927Z,24.50
2019-03-18T06:31:53.972Z,25.60
2019-03-18T06:32:53.998Z,26.10
2019-03-18T06:33:54.061Z,26.10
2019-03-18T06:34:54.102Z,25.70
2019-03-18T06:35:54.151Z,25.10
2019-03-18T06:36:54.186Z,25.60
2019-03-18T06:37:54.237Z,25.00
2019-03-18T06:38:54.307Z,26.40
2019-03-18T06:39:54.333Z,26.40
2019-03-18T06:40:54.377Z,26.60
2019-03-18T06:41:54.425Z,25.70
2019-03-18T06:42:54.491Z,25.10
2019-03-18T06:43:54.524Z,27.70
2019-03-18T06:44:54.614Z,26.50
2019-03-18T06:45:54.616Z,27.10
2019-03-18T06:46:54.673Z,27.90
2019-03-18T06:48:04.223Z,28.30
2019-03-18T06:48:54.735Z,27.00
2019-03-18T06:49:54.802Z,27.50
2019-03-18T06:50:54.832Z,27.70
2019-03-18T06:51:54.881Z,27.70
2019-03-18T06:52:54.928Z,28.30
2019-03-18T06:53:54.987Z,28.80
2019-03-18T06:54:55.010Z,29.50
2019-03-18T06:55:55.088Z,28.90
2019-03-18T06:56:55.130Z,28.20
2019-03-18T06:57:55.203Z,28.80
2019-03-18T06:58:55.249Z,30.00
2019-03-18T06:59:55.244Z,28.90
2019-03-18T07:00:55.296Z,28.60
2019-03-18T07:01:55.342Z,28.10
2019-03-18T07:02:55.435Z,27.50
2019-03-18T07:03:55.447Z,28.00
2019-03-18T07:04:55.503Z,28.30
2019-03-18T07:05:55.524Z,28.80
2019-03-18T07:06:55.588Z,30.10
2019-03-18T07:07:55.650Z,29.70
2019-03-18T07:08:55.673Z,31.90
2019-03-18T07:09:55.759Z,31.00
2019-03-18T07:10:55.814Z,30.50
2019-03-18T07:11:56.013Z,34.20
2019-03-18T07:12:55.855Z,31.80
2019-03-18T07:13:55.901Z,42.90
2019-03-18T07:14:55.943Z,34.90
2019-03-18T07:15:55.992Z,37.30
2019-03-18T07:16:56.049Z,35.70
2019-03-18T07:17:56.092Z,40.60
2019-03-18T07:18:56.133Z,40.40
2019-03-18T07:19:56.174Z,42.90
2019-03-18T07:20:56.251Z,33.90
2019-03-18T07:21:56.333Z,35.50
2019-03-18T07:22:56.323Z,32.50
2019-03-18T07:23:56.355Z,40.20
2019-03-18T07:24:56.427Z,31.10
2019-03-18T07:25:56.452Z,30.80
2019-03-18T07:26:56.500Z,32.80
2019-03-18T07:27:56.595Z,30.40
2019-03-18T07:28:56.624Z,32.40
2019-03-18T07:29:56.629Z,31.70
2019-03-18T07:30:56.704Z,32.60
2019-03-18T07:31:56.718Z,32.30
2019-03-18T07:32:56.901Z,28.70
2019-03-18T07:33:59.724Z,27.80
2019-03-18T07:34:56.888Z,28.10
2019-03-18T07:35:56.929Z,31.80
2019-03-18T07:36:56.955Z,33.20
2019-03-18T07:37:57.021Z,31.10
2019-03-18T07:38:57.116Z,29.10
2019-03-18T07:39:57.127Z,27.70
2019-03-18T07:40:57.168Z,27.70
2019-03-18T07:41:57.215Z,27.20
2019-03-18T07:42:57.261Z,28.00
2019-03-18T07:43:57.301Z,26.80
2019-03-18T07:44:57.350Z,27.80
2019-03-18T07:45:57.397Z,29.70
2019-03-18T07:46:57.443Z,27.90
2019-03-18T07:47:57.477Z,25.80
2019-03-18T07:48:57.529Z,26.00
2019-03-18T07:49:57.576Z,23.30
2019-03-18T07:50:57.614Z,24.70
2019-03-18T07:51:57.664Z,25.20
2019-03-18T07:52:57.715Z,24.20
2019-03-18T07:53:57.757Z,24.00
2019-03-18T07:54:57.822Z,25.60
2019-03-18T07:55:57.857Z,27.60
2019-03-18T07:56:57.947Z,28.40
2019-03-18T07:57:57.992Z,26.70
2019-03-18T07:58:58.001Z,26.00
2019-03-18T07:59:58.206Z,28.20
2019-03-18T08:00:58.177Z,27.60
2019-03-18T08:01:58.171Z,27.00
2019-03-18T08:02:58.223Z,27.10
2019-03-18T08:03:58.216Z,29.30
2019-03-18T08:04:58.277Z,29.10
2019-03-18T08:05:58.335Z,27.90
2019-03-18T08:06:58.360Z,30.20
2019-03-18T08:07:58.390Z,31.00
2019-03-18T08:08:58.456Z,29.40
2019-03-18T08:09:58.546Z,29.90
2019-03-18T08:10:58.542Z,29.00
2019-03-18T08:11:58.599Z,30.00
2019-03-18T08:12:58.645Z,32.80
2019-03-18T08:13:58.726Z,41.30
2019-03-18T08:14:58.725Z,33.20
2019-03-18T08:15:58.778Z,33.00
2019-03-18T08:16:58.856Z,34.60
2019-03-18T08:17:58.939Z,32.30
2019-03-18T08:18:58.909Z,39.50
2019-03-18T08:19:58.948Z,47.30
2019-03-18T08:20:59.166Z,33.70
2019-03-18T08:21:59.059Z,29.40
2019-03-18T08:22:59.127Z,32.30
2019-03-18T08:23:59.166Z,31.60
2019-03-18T08:24:59.203Z,28.80
2019-03-18T08:25:59.245Z,28.00
2019-03-18T08:26:59.299Z,29.10
2019-03-18T08:27:59.333Z,29.10
2019-03-18T08:28:59.379Z,29.40
2019-03-18T08:29:59.426Z,28.90
2019-03-18T08:30:59.493Z,31.60
2019-03-18T08:31:59.612Z,31.60
2019-03-18T08:32:59.551Z,35.00
2019-03-18T08:33:59.636Z,33.10
2019-03-18T08:34:59.673Z,40.80
2019-03-18T08:35:59.706Z,46.90
2019-03-18T08:36:59.752Z,43.80
2019-03-18T08:37:59.850Z,46.10
2019-03-18T08:38:59.839Z,39.60
2019-03-18T08:39:59.931Z,34.80
2019-03-18T08:40:59.986Z,37.20
2019-03-18T08:41:59.978Z,33.40
2019-03-18T08:43:00.046Z,37.50
2019-03-18T08:44:00.057Z,40.20
2019-03-18T08:45:00.122Z,36.70
2019-03-18T08:46:00.205Z,31.10
2019-03-18T08:47:00.217Z,34.80
2019-03-18T08:48:00.254Z,37.20
2019-03-18T08:49:00.420Z,39.30
2019-03-18T08:50:00.387Z,57.50
2019-03-18T08:51:00.414Z,37.60
2019-03-18T08:52:00.449Z,34.00
2019-03-18T08:53:00.493Z,35.70
2019-03-18T08:54:00.561Z,49.50
2019-03-18T08:55:00.642Z,43.10
2019-03-18T08:56:00.621Z,38.80
2019-03-18T08:57:00.765Z,42.40
2019-03-18T08:58:00.736Z,45.80
2019-03-18T08:59:00.771Z,36.10
2019-03-18T09:00:00.823Z,36.50
2019-03-18T09:01:00.914Z,30.90
2019-03-18T09:02:00.948Z,36.30
2019-03-18T09:03:00.956Z,35.30
2019-03-18T09:04:01.043Z,32.90
2019-03-18T09:05:01.039Z,38.10
2019-03-18T09:06:01.139Z,35.40
2019-03-18T09:07:01.147Z,45.60
2019-03-18T09:08:01.215Z,37.40
2019-03-18T09:09:01.232Z,40.90
2019-03-18T09:10:01.307Z,44.30
2019-03-18T09:11:01.327Z,42.20
2019-03-18T09:12:01.403Z,44.50
2019-03-18T09:13:01.427Z,39.90
2019-03-18T09:14:01.500Z,41.30
2019-03-18T09:15:01.512Z,42.30
2019-03-18T09:16:01.548Z,42.30
2019-03-18T09:17:01.600Z,42.50
2019-03-18T09:18:01.657Z,35.70
2019-03-18T09:19:08.501Z,41.60
2019-03-18T09:20:01.791Z,42.60
2019-03-18T09:21:01.830Z,35.50
2019-03-18T09:22:01.830Z,41.40
2019-03-18T09:23:01.917Z,42.60
2019-03-18T09:24:01.918Z,37.70
2019-03-18T09:25:01.965Z,41.10
2019-03-18T09:26:02.010Z,43.00
2019-03-18T09:27:02.852Z,41.30
2019-03-18T09:28:02.104Z,38.70
2019-03-18T09:29:02.136Z,50.90
2019-03-18T09:30:02.189Z,50.50
2019-03-18T09:31:02.243Z,44.50
2019-03-18T09:32:02.384Z,44.80
2019-03-18T09:33:02.332Z,39.50
2019-03-18T09:34:02.384Z,39.80
2019-03-18T09:35:02.438Z,33.80
2019-03-18T09:36:02.465Z,36.60
2019-03-18T09:37:02.506Z,36.30
2019-03-18T09:38:02.575Z,35.50
2019-03-18T09:39:02.591Z,38.40
2019-03-18T09:40:02.672Z,36.10
2019-03-18T09:41:02.714Z,34.00
2019-03-18T09:42:02.768Z,35.10
2019-03-18T09:43:02.856Z,33.10
2019-03-18T09:44:02.842Z,31.90
2019-03-18T09:45:02.899Z,36.20
2019-03-18T09:46:02.923Z,30.50
2019-03-18T09:47:03.023Z,31.40
2019-03-18T09:48:03.016Z,31.80
2019-03-18T09:49:03.066Z,29.80
2019-03-18T09:50:03.102Z,30.60
2019-03-18T09:51:03.186Z,28.50
2019-03-18T09:52:03.230Z,30.10
2019-03-18T09:53:03.262Z,29.20
2019-03-18T09:54:03.281Z,28.00
2019-03-18T09:55:03.356Z,31.90
2019-03-18T09:56:03.382Z,29.40
2019-03-18T09:57:03.437Z,29.80
2019-03-18T09:58:03.501Z,29.20
2019-03-18T09:59:03.547Z,29.10
2019-03-18T10:00:03.585Z,28.90
2019-03-18T10:01:03.633Z,28.00
2019-03-18T10:02:03.715Z,26.50
2019-03-18T10:03:03.778Z,24.90
2019-03-18T10:04:03.792Z,26.50
2019-03-18T10:05:03.842Z,25.60
2019-03-18T10:06:03.874Z,24.80
2019-03-18T10:07:03.913Z,26.20
2019-03-18T10:08:03.948Z,26.10
2019-03-18T10:09:04.009Z,26.40
2019-03-18T10:10:04.058Z,25.20
2019-03-18T10:11:04.082Z,25.00
2019-03-18T10:12:04.135Z,23.80
2019-03-18T10:13:04.208Z,23.40
2019-03-18T10:14:04.248Z,23.00
2019-03-18T10:15:04.294Z,24.60
2019-03-18T10:16:04.350Z,23.10
2019-03-18T10:17:09.654Z,22.00
2019-03-18T10:18:04.429Z,22.00
2019-03-18T10:19:04.523Z,22.50
2019-03-18T10:20:04.516Z,24.00
2019-03-18T10:21:04.566Z,23.60
2019-03-18T10:22:04.624Z,23.20
2019-03-18T10:23:04.649Z,23.70
2019-03-18T10:24:04.687Z,23.50
2019-03-18T10:25:04.762Z,22.40
2019-03-18T10:26:04.813Z,22.60
2019-03-18T10:27:04.864Z,23.80
2019-03-18T10:28:04.895Z,22.40
2019-03-18T10:29:04.991Z,22.60
2019-03-18T10:30:05.029Z,22.40
2019-03-18T10:31:05.057Z,22.10
2019-03-18T10:32:05.108Z,22.20
2019-03-18T10:33:05.137Z,22.30
2019-03-18T10:34:05.192Z,20.70
2019-03-18T10:35:05.224Z,21.20
2019-03-18T10:36:05.313Z,22.00
2019-03-18T10:37:05.321Z,21.00
2019-03-18T10:38:05.379Z,21.10
2019-03-18T10:39:05.408Z,20.60
2019-03-18T10:40:05.469Z,20.00
2019-03-18T10:41:05.517Z,19.70
2019-03-18T10:42:05.573Z,19.80
2019-03-18T10:43:05.601Z,20.20
2019-03-18T10:44:05.665Z,20.00
2019-03-18T10:45:05.695Z,19.90
2019-03-18T10:46:05.759Z,19.70
2019-03-18T10:47:05.803Z,20.00
2019-03-18T10:48:05.844Z,21.20
2019-03-18T10:49:05.910Z,20.90
2019-03-18T10:50:05.962Z,21.40
2019-03-18T10:51:05.995Z,20.10
2019-03-18T10:52:06.063Z,21.90
2019-03-18T10:53:06.120Z,19.90
2019-03-18T10:54:06.149Z,19.40
2019-03-18T10:55:06.192Z,20.30
2019-03-18T10:56:08.075Z,20.10
2019-03-18T10:57:06.281Z,20.10
2019-03-18T10:58:06.341Z,19.40
2019-03-18T10:59:06.395Z,19.40
2019-03-18T11:00:06.419Z,18.40
2019-03-18T11:01:06.494Z,17.20
2019-03-18T11:02:06.566Z,17.40
2019-03-18T11:03:06.585Z,17.50
2019-03-18T11:04:06.631Z,16.30
2019-03-18T11:05:08.235Z,16.50
2019-03-18T11:06:06.763Z,16.60
2019-03-18T11:07:06.785Z,16.00
2019-03-18T11:08:06.839Z,15.20
2019-03-18T11:09:06.882Z,14.40
2019-03-18T11:10:06.978Z,15.30
2019-03-18T11:11:06.969Z,14.50
2019-03-18T11:12:07.055Z,14.80
2019-03-18T11:13:07.099Z,14.60
2019-03-18T11:14:07.137Z,13.50
2019-03-18T11:15:07.201Z,14.50
2019-03-18T11:16:07.261Z,14.10
2019-03-18T11:17:07.311Z,14.10
2019-03-18T11:18:07.348Z,14.30
2019-03-18T11:19:07.420Z,14.60
2019-03-18T11:20:07.448Z,14.90
2019-03-18T11:21:07.507Z,15.10
2019-03-18T11:22:07.558Z,15.60
2019-03-18T11:23:07.652Z,15.00
2019-03-18T11:24:07.679Z,16.00
2019-03-18T11:25:07.724Z,16.10
2019-03-18T11:26:07.805Z,16.70
2019-03-18T11:27:07.866Z,16.00
2019-03-18T11:28:07.876Z,15.30
2019-03-18T11:29:07.981Z,16.20
2019-03-18T11:30:08.001Z,15.70
2019-03-18T11:31:08.036Z,16.00
2019-03-18T11:32:08.114Z,16.20
2019-03-18T11:33:08.141Z,16.70
2019-03-18T11:34:08.358Z,15.70
2019-03-18T11:35:08.258Z,16.40
2019-03-18T11:36:08.297Z,15.90
2019-03-18T11:37:08.399Z,15.80
2019-03-18T11:38:08.414Z,16.00
2019-03-18T11:39:08.449Z,15.40
2019-03-18T11:40:08.516Z,15.20
2019-03-18T11:41:08.574Z,15.20
2019-03-18T11:42:08.609Z,14.80
2019-03-18T11:43:08.725Z,13.90
2019-03-18T11:44:08.707Z,14.30
2019-03-18T11:45:08.767Z,14.40
2019-03-18T11:46:08.833Z,14.50
2019-03-18T11:47:08.894Z,13.90
2019-03-18T11:48:08.943Z,13.90
2019-03-18T11:49:08.996Z,13.70
2019-03-18T11:50:11.498Z,13.40
2019-03-18T11:51:09.122Z,13.50
2019-03-18T11:52:09.151Z,13.30
2019-03-18T11:53:14.380Z,11.80
2019-03-18T11:54:09.271Z,12.40
2019-03-18T11:55:09.305Z,12.20
2019-03-18T11:56:09.362Z,11.30
2019-03-18T11:57:09.405Z,11.10
2019-03-18T11:58:09.476Z,10.40
2019-03-18T11:59:09.533Z,10.80
2019-03-18T12:00:09.556Z,11.10
2019-03-18T12:01:09.636Z,10.70
2019-03-18T12:02:09.699Z,10.70
2019-03-18T12:03:09.795Z,11.70
2019-03-18T12:04:09.798Z,11.70
2019-03-18T12:05:09.853Z,11.90
2019-03-18T12:06:09.912Z,11.20
2019-03-18T12:07:09.975Z,11.00
2019-03-18T12:08:10.028Z,10.00
2019-03-18T12:09:10.077Z,10.50
2019-03-18T12:10:10.111Z,10.10
2019-03-18T12:11:10.296Z,10.00
2019-03-18T12:12:13.215Z,10.40
2019-03-18T12:13:10.323Z,10.90
2019-03-18T12:14:10.356Z,10.00
2019-03-18T12:15:10.412Z,9.70
2019-03-18T12:16:10.466Z,9.90
2019-03-18T12:17:10.537Z,9.30
2019-03-18T12:18:10.594Z,9.70
2019-03-18T12:19:10.646Z,9.30
2019-03-18T12:20:23.162Z,8.60
2019-03-18T12:21:10.759Z,9.00
2019-03-18T12:22:10.809Z,8.90
2019-03-18T12:23:10.865Z,8.80
2019-03-18T12:24:10.903Z,9.30
2019-03-18T12:25:11.034Z,9.10
2019-03-18T12:26:11.057Z,8.90
2019-03-18T12:27:11.112Z,8.50
2019-03-18T12:28:11.171Z,8.30
2019-03-18T12:29:11.226Z,8.40
2019-03-18T12:30:11.279Z,8.40
2019-03-18T12:31:11.323Z,8.10
2019-03-18T12:32:11.404Z,8.50
2019-03-18T12:33:11.460Z,8.30
2019-03-18T12:34:11.512Z,8.40
2019-03-18T12:35:11.580Z,7.90
2019-03-18T12:36:11.620Z,8.40
2019-03-18T12:37:11.686Z,8.60
2019-03-18T12:38:11.790Z,8.50
2019-03-18T12:39:11.788Z,8.80
2019-03-18T12:40:11.855Z,8.50
2019-03-18T12:41:11.908Z,8.40
2019-03-18T12:42:11.979Z,7.60
2019-03-18T12:43:12.043Z,8.20
2019-03-18T12:44:12.101Z,8.20
2019-03-18T12:45:12.158Z,8.60
2019-03-18T12:46:12.215Z,8.10
2019-03-18T12:47:12.267Z,8.10
2019-03-18T12:48:12.318Z,7.90
2019-03-18T12:49:12.386Z,8.20
2019-03-18T12:50:12.524Z,8.10
2019-03-18T12:51:12.500Z,7.60
2019-03-18T12:52:12.553Z,7.80
2019-03-18T12:53:12.632Z,7.80
2019-03-18T12:54:12.690Z,8.10
2019-03-18T12:55:12.743Z,7.40